sensor_id;sensor_type;location;lat;lon;timestamp;pressure;altitude;pressure_sealevel;temperature;humidity
55191;BME280;41070;50.360;18.742;2022-10-31T00:00:33;99074.80;;;10.97;90.91
55191;BME280;41070;50.360;18.742;2022-10-31T00:03:21;99070.67;;;10.95;90.96
55191;BME280;41070;50.360;18.742;2022-10-31T00:05:49;99073.23;;;10.94;90.75
55191;BME280;41070;50.360;18.742;2022-10-31T00:08:17;99072.11;;;10.90;90.53
55191;BME280;41070;50.360;18.742;2022-10-31T00:10:45;99069.04;;;10.85;90.32
55191;BME280;41070;50.360;18.742;2022-10-31T00:13:13;99068.64;;;10.82;90.37
55191;BME280;41070;50.360;18.742;2022-10-31T00:15:41;99070.05;;;10.78;90.14
55191;BME280;41070;50.360;18.742;2022-10-31T00:18:10;99068.26;;;10.78;90.83
55191;BME280;41070;50.360;18.742;2022-10-31T00:20:37;99065.78;;;10.81;91.06
55191;BME280;41070;50.360;18.742;2022-10-31T00:23:06;99066.28;;;10.84;91.40
55191;BME280;41070;50.360;18.742;2022-10-31T00:25:34;99068.63;;;10.89;91.28
55191;BME280;41070;50.360;18.742;2022-10-31T00:28:03;99071.74;;;10.88;90.94
55191;BME280;41070;50.360;18.742;2022-10-31T00:30:30;99074.40;;;10.85;90.68
55191;BME280;41070;50.360;18.742;2022-10-31T00:32:58;99072.29;;;10.79;90.45
55191;BME280;41070;50.360;18.742;2022-10-31T00:35:26;99074.19;;;10.74;90.43
55191;BME280;41070;50.360;18.742;2022-10-31T00:37:53;99071.11;;;10.71;90.46
55191;BME280;41070;50.360;18.742;2022-10-31T00:40:20;99069.98;;;10.68;90.27
55191;BME280;41070;50.360;18.742;2022-10-31T00:42:48;99073.31;;;10.62;90.05
55191;BME280;41070;50.360;18.742;2022-10-31T00:45:15;99073.02;;;10.53;89.94
55191;BME280;41070;50.360;18.742;2022-10-31T00:47:43;99071.90;;;10.45;89.78
55191;BME280;41070;50.360;18.742;2022-10-31T00:50:11;99070.94;;;10.37;89.79
55191;BME280;41070;50.360;18.742;2022-10-31T00:52:38;99074.54;;;10.29;89.66
55191;BME280;41070;50.360;18.742;2022-10-31T00:55:06;99074.50;;;10.20;89.35
55191;BME280;41070;50.360;18.742;2022-10-31T00:57:33;99079.08;;;10.12;89.54
55191;BME280;41070;50.360;18.742;2022-10-31T01:00:01;99077.45;;;10.04;89.57
55191;BME280;41070;50.360;18.742;2022-10-31T01:02:28;99081.59;;;9.94;89.77
55191;BME280;41070;50.360;18.742;2022-10-31T01:04:56;99078.48;;;9.89;89.81
55191;BME280;41070;50.360;18.742;2022-10-31T01:07:24;99073.55;;;9.81;89.91
55191;BME280;41070;50.360;18.742;2022-10-31T01:09:51;99073.71;;;9.75;89.93
55191;BME280;41070;50.360;18.742;2022-10-31T01:12:19;99076.95;;;9.70;90.11
55191;BME280;41070;50.360;18.742;2022-10-31T01:14:47;99081.15;;;9.66;90.36
55191;BME280;41070;50.360;18.742;2022-10-31T01:17:15;99083.05;;;9.64;90.41
55191;BME280;41070;50.360;18.742;2022-10-31T01:19:43;99080.13;;;9.59;90.40
55191;BME280;41070;50.360;18.742;2022-10-31T01:22:19;99084.42;;;9.56;90.34
55191;BME280;41070;50.360;18.742;2022-10-31T01:24:47;99080.33;;;9.56;90.62
55191;BME280;41070;50.360;18.742;2022-10-31T01:27:14;99076.48;;;9.55;90.43
55191;BME280;41070;50.360;18.742;2022-10-31T01:29:43;99077.69;;;9.51;89.91
55191;BME280;41070;50.360;18.742;2022-10-31T01:32:11;99075.02;;;9.45;89.79
55191;BME280;41070;50.360;18.742;2022-10-31T01:34:45;99071.95;;;9.39;89.83
55191;BME280;41070;50.360;18.742;2022-10-31T01:37:13;99070.61;;;9.36;90.03
55191;BME280;41070;50.360;18.742;2022-10-31T01:39:40;99064.82;;;9.30;90.06
55191;BME280;41070;50.360;18.742;2022-10-31T01:42:16;99065.29;;;9.29;90.17
55191;BME280;41070;50.360;18.742;2022-10-31T01:44:53;99063.20;;;9.26;90.25
55191;BME280;41070;50.360;18.742;2022-10-31T01:47:25;99065.61;;;9.21;90.15
55191;BME280;41070;50.360;18.742;2022-10-31T01:50:14;99059.91;;;9.16;90.19
55191;BME280;41070;50.360;18.742;2022-10-31T01:52:44;99065.29;;;9.17;90.46
55191;BME280;41070;50.360;18.742;2022-10-31T01:55:18;99061.63;;;9.21;90.77
55191;BME280;41070;50.360;18.742;2022-10-31T01:58:06;99061.95;;;9.21;90.52
55191;BME280;41070;50.360;18.742;2022-10-31T02:00:35;99060.41;;;9.19;90.43
55191;BME280;41070;50.360;18.742;2022-10-31T02:03:03;99060.14;;;9.16;90.41
55191;BME280;41070;50.360;18.742;2022-10-31T02:05:31;99065.84;;;9.15;90.40
55191;BME280;41070;50.360;18.742;2022-10-31T02:08:12;99070.78;;;9.15;90.64
55191;BME280;41070;50.360;18.742;2022-10-31T02:10:42;99068.48;;;9.18;90.62
55191;BME280;41070;50.360;18.742;2022-10-31T02:13:10;99072.05;;;9.20;90.55
55191;BME280;41070;50.360;18.742;2022-10-31T02:15:39;99072.21;;;9.20;90.17
55191;BME280;41070;50.360;18.742;2022-10-31T02:18:07;99073.67;;;9.17;90.04
55191;BME280;41070;50.360;18.742;2022-10-31T02:23:31;99074.74;;;9.17;90.15
55191;BME280;41070;50.360;18.742;2022-10-31T02:31:26;99076.17;;;9.17;90.40
55191;BME280;41070;50.360;18.742;2022-10-31T02:34:17;99074.89;;;9.18;90.36
55191;BME280;41070;50.360;18.742;2022-10-31T02:39:45;99070.63;;;9.17;90.06
55191;BME280;41070;50.360;18.742;2022-10-31T02:42:38;99076.74;;;9.17;90.24
55191;BME280;41070;50.360;18.742;2022-10-31T02:47:49;99077.72;;;9.17;90.29
55191;BME280;41070;50.360;18.742;2022-10-31T02:50:20;99078.00;;;9.18;90.27
55191;BME280;41070;50.360;18.742;2022-10-31T02:52:51;99079.86;;;9.19;90.18
55191;BME280;41070;50.360;18.742;2022-10-31T02:57:53;99083.45;;;9.19;89.93
55191;BME280;41070;50.360;18.742;2022-10-31T03:00:21;99081.55;;;9.19;89.90
55191;BME280;41070;50.360;18.742;2022-10-31T03:02:52;99079.51;;;9.18;89.86
55191;BME280;41070;50.360;18.742;2022-10-31T03:10:35;99084.91;;;9.16;90.41
55191;BME280;41070;50.360;18.742;2022-10-31T03:13:17;99089.73;;;9.16;90.65
55191;BME280;41070;50.360;18.742;2022-10-31T03:15:49;99090.63;;;9.19;91.05
55191;BME280;41070;50.360;18.742;2022-10-31T03:18:23;99093.35;;;9.22;91.11
55191;BME280;41070;50.360;18.742;2022-10-31T03:20:55;99094.48;;;9.23;91.08
55191;BME280;41070;50.360;18.742;2022-10-31T03:23:24;99097.65;;;9.25;91.25
55191;BME280;41070;50.360;18.742;2022-10-31T03:25:52;99099.64;;;9.25;91.09
55191;BME280;41070;50.360;18.742;2022-10-31T03:28:23;99097.52;;;9.23;90.64
55191;BME280;41070;50.360;18.742;2022-10-31T03:30:53;99100.30;;;9.19;90.55
55191;BME280;41070;50.360;18.742;2022-10-31T03:33:24;99100.05;;;9.15;90.32
55191;BME280;41070;50.360;18.742;2022-10-31T03:35:58;99106.81;;;9.10;90.33
55191;BME280;41070;50.360;18.742;2022-10-31T03:38:28;99105.96;;;9.06;90.40
55191;BME280;41070;50.360;18.742;2022-10-31T03:40:59;99109.92;;;9.02;90.20
55191;BME280;41070;50.360;18.742;2022-10-31T03:43:30;99107.84;;;8.98;90.26
55191;BME280;41070;50.360;18.742;2022-10-31T03:46:01;99110.15;;;8.93;90.01
55191;BME280;41070;50.360;18.742;2022-10-31T03:48:48;99110.42;;;8.84;89.86
55191;BME280;41070;50.360;18.742;2022-10-31T03:53:56;99114.61;;;8.79;89.97
55191;BME280;41070;50.360;18.742;2022-10-31T03:56:29;99117.34;;;8.77;90.18
55191;BME280;41070;50.360;18.742;2022-10-31T03:59:07;99113.41;;;8.78;90.60
55191;BME280;41070;50.360;18.742;2022-10-31T04:01:38;99119.25;;;8.79;90.61
55191;BME280;41070;50.360;18.742;2022-10-31T04:04:07;99118.03;;;8.79;90.60
55191;BME280;41070;50.360;18.742;2022-10-31T04:06:36;99119.20;;;8.77;90.65
55191;BME280;41070;50.360;18.742;2022-10-31T04:09:04;99118.98;;;8.78;90.87
55191;BME280;41070;50.360;18.742;2022-10-31T04:11:38;99119.95;;;8.77;90.91
55191;BME280;41070;50.360;18.742;2022-10-31T04:14:07;99118.77;;;8.77;90.81
55191;BME280;41070;50.360;18.742;2022-10-31T04:16:36;99121.39;;;8.75;90.62
55191;BME280;41070;50.360;18.742;2022-10-31T04:19:04;99123.60;;;8.71;90.37
55191;BME280;41070;50.360;18.742;2022-10-31T04:21:31;99126.48;;;8.64;90.12
55191;BME280;41070;50.360;18.742;2022-10-31T04:23:59;99123.27;;;8.57;90.14
55191;BME280;41070;50.360;18.742;2022-10-31T04:26:26;99125.23;;;8.51;90.17
55191;BME280;41070;50.360;18.742;2022-10-31T04:28:56;99127.64;;;8.46;90.25
55191;BME280;41070;50.360;18.742;2022-10-31T04:31:24;99133.21;;;8.43;90.39
55191;BME280;41070;50.360;18.742;2022-10-31T04:33:51;99131.80;;;8.41;90.34
55191;BME280;41070;50.360;18.742;2022-10-31T04:36:19;99132.34;;;8.38;90.49
55191;BME280;41070;50.360;18.742;2022-10-31T04:38:47;99134.70;;;8.38;90.47
55191;BME280;41070;50.360;18.742;2022-10-31T04:41:14;99133.45;;;8.37;90.64
55191;BME280;41070;50.360;18.742;2022-10-31T04:43:42;99129.36;;;8.40;90.64
55191;BME280;41070;50.360;18.742;2022-10-31T04:46:09;99133.20;;;8.42;90.85
55191;BME280;41070;50.360;18.742;2022-10-31T04:48:37;99133.39;;;8.44;90.77
55191;BME280;41070;50.360;18.742;2022-10-31T04:51:04;99133.89;;;8.45;90.79
55191;BME280;41070;50.360;18.742;2022-10-31T04:53:32;99134.64;;;8.46;90.75
55191;BME280;41070;50.360;18.742;2022-10-31T04:55:59;99134.22;;;8.47;90.57
55191;BME280;41070;50.360;18.742;2022-10-31T04:58:29;99130.21;;;8.46;90.32
55191;BME280;41070;50.360;18.742;2022-10-31T05:00:56;99130.33;;;8.42;89.95
55191;BME280;41070;50.360;18.742;2022-10-31T05:03:24;99132.59;;;8.39;89.85
55191;BME280;41070;50.360;18.742;2022-10-31T05:05:51;99130.81;;;8.31;89.58
55191;BME280;41070;50.360;18.742;2022-10-31T05:08:19;99130.71;;;8.25;89.92
55191;BME280;41070;50.360;18.742;2022-10-31T05:10:46;99130.45;;;8.23;90.39
55191;BME280;41070;50.360;18.742;2022-10-31T05:13:14;99130.86;;;8.22;90.31
55191;BME280;41070;50.360;18.742;2022-10-31T05:15:41;99126.70;;;8.20;90.17
55191;BME280;41070;50.360;18.742;2022-10-31T05:18:09;99123.15;;;8.20;90.52
55191;BME280;41070;50.360;18.742;2022-10-31T05:20:37;99130.84;;;8.23;90.55
55191;BME280;41070;50.360;18.742;2022-10-31T05:23:05;99132.41;;;8.24;90.33
55191;BME280;41070;50.360;18.742;2022-10-31T05:25:32;99138.27;;;8.22;90.22
55191;BME280;41070;50.360;18.742;2022-10-31T05:28:00;99136.33;;;8.19;90.27
55191;BME280;41070;50.360;18.742;2022-10-31T05:30:29;99144.30;;;8.15;90.19
55191;BME280;41070;50.360;18.742;2022-10-31T05:32:57;99143.75;;;8.12;90.36
55191;BME280;41070;50.360;18.742;2022-10-31T05:35:26;99146.39;;;8.09;90.37
55191;BME280;41070;50.360;18.742;2022-10-31T05:37:54;99149.83;;;8.10;90.58
55191;BME280;41070;50.360;18.742;2022-10-31T05:40:22;99149.64;;;8.11;90.80
55191;BME280;41070;50.360;18.742;2022-10-31T05:42:52;99150.42;;;8.11;90.75
55191;BME280;41070;50.360;18.742;2022-10-31T05:45:21;99152.63;;;8.14;90.95
55191;BME280;41070;50.360;18.742;2022-10-31T05:47:56;99156.52;;;8.18;90.92
55191;BME280;41070;50.360;18.742;2022-10-31T05:50:24;99157.93;;;8.19;90.60
55191;BME280;41070;50.360;18.742;2022-10-31T05:53:02;99158.85;;;8.22;90.87
55191;BME280;41070;50.360;18.742;2022-10-31T05:55:30;99160.33;;;8.26;90.91
55191;BME280;41070;50.360;18.742;2022-10-31T05:57:58;99162.52;;;8.29;90.70
55191;BME280;41070;50.360;18.742;2022-10-31T06:00:26;99164.95;;;8.33;90.56
55191;BME280;41070;50.360;18.742;2022-10-31T06:03:00;99164.99;;;8.36;90.43
55191;BME280;41070;50.360;18.742;2022-10-31T06:05:28;99167.36;;;8.39;90.35
55191;BME280;41070;50.360;18.742;2022-10-31T06:08:15;99170.68;;;8.43;90.41
55191;BME280;41070;50.360;18.742;2022-10-31T06:10:52;99169.80;;;8.45;90.24
55191;BME280;41070;50.360;18.742;2022-10-31T06:13:20;99174.23;;;8.49;90.24
55191;BME280;41070;50.360;18.742;2022-10-31T06:15:47;99173.60;;;8.52;90.32
55191;BME280;41070;50.360;18.742;2022-10-31T06:18:35;99175.16;;;8.57;90.41
55191;BME280;41070;50.360;18.742;2022-10-31T06:21:22;99180.98;;;8.64;90.35
55191;BME280;41070;50.360;18.742;2022-10-31T06:23:50;99178.77;;;8.70;90.28
55191;BME280;41070;50.360;18.742;2022-10-31T06:26:18;99179.05;;;8.74;90.24
55191;BME280;41070;50.360;18.742;2022-10-31T06:29:05;99185.52;;;8.79;90.21
55191;BME280;41070;50.360;18.742;2022-10-31T06:31:33;99188.63;;;8.84;90.27
55191;BME280;41070;50.360;18.742;2022-10-31T06:34:20;99191.75;;;8.90;89.99
55191;BME280;41070;50.360;18.742;2022-10-31T06:37:08;99191.23;;;8.96;89.87
55191;BME280;41070;50.360;18.742;2022-10-31T06:39:55;99197.33;;;9.04;90.12
55191;BME280;41070;50.360;18.742;2022-10-31T06:42:26;99196.91;;;9.10;90.19
55191;BME280;41070;50.360;18.742;2022-10-31T06:44:54;99200.09;;;9.17;90.29
55191;BME280;41070;50.360;18.742;2022-10-31T06:47:21;99202.21;;;9.26;90.37
55191;BME280;41070;50.360;18.742;2022-10-31T06:49:49;99205.73;;;9.36;90.55
55191;BME280;41070;50.360;18.742;2022-10-31T06:52:16;99209.45;;;9.44;90.49
55191;BME280;41070;50.360;18.742;2022-10-31T06:54:44;99205.02;;;9.52;90.39
55191;BME280;41070;50.360;18.742;2022-10-31T06:57:11;99207.17;;;9.60;90.59
55191;BME280;41070;50.360;18.742;2022-10-31T06:59:39;99208.67;;;9.69;90.73
55191;BME280;41070;50.360;18.742;2022-10-31T07:02:12;99210.34;;;9.76;90.80
55191;BME280;41070;50.360;18.742;2022-10-31T07:04:42;99209.77;;;9.83;90.54
55191;BME280;41070;50.360;18.742;2022-10-31T07:07:09;99209.98;;;9.89;90.47
55191;BME280;41070;50.360;18.742;2022-10-31T07:09:37;99206.70;;;9.94;90.66
55191;BME280;41070;50.360;18.742;2022-10-31T07:12:05;99208.63;;;10.01;90.43
55191;BME280;41070;50.360;18.742;2022-10-31T07:14:32;99215.16;;;10.06;90.65
55191;BME280;41070;50.360;18.742;2022-10-31T07:17:00;99213.98;;;10.15;90.83
55191;BME280;41070;50.360;18.742;2022-10-31T07:19:28;99216.27;;;10.21;90.62
55191;BME280;41070;50.360;18.742;2022-10-31T07:21:56;99214.25;;;10.28;90.68
55191;BME280;41070;50.360;18.742;2022-10-31T07:24:23;99215.92;;;10.35;90.71
55191;BME280;41070;50.360;18.742;2022-10-31T07:26:51;99214.38;;;10.41;90.74
55191;BME280;41070;50.360;18.742;2022-10-31T07:29:18;99219.27;;;10.49;91.08
55191;BME280;41070;50.360;18.742;2022-10-31T07:31:46;99215.33;;;10.59;90.95
55191;BME280;41070;50.360;18.742;2022-10-31T07:34:14;99214.85;;;10.67;90.87
55191;BME280;41070;50.360;18.742;2022-10-31T07:36:46;99213.02;;;10.71;90.93
55191;BME280;41070;50.360;18.742;2022-10-31T07:39:14;99219.36;;;10.77;91.19
55191;BME280;41070;50.360;18.742;2022-10-31T07:41:43;99216.80;;;10.85;91.22
55191;BME280;41070;50.360;18.742;2022-10-31T07:44:11;99220.98;;;10.93;91.30
55191;BME280;41070;50.360;18.742;2022-10-31T07:46:56;99219.59;;;10.99;91.16
55191;BME280;41070;50.360;18.742;2022-10-31T07:50:24;99221.75;;;11.03;91.08
55191;BME280;41070;50.360;18.742;2022-10-31T07:56:40;99220.74;;;11.17;90.89
55191;BME280;41070;50.360;18.742;2022-10-31T07:59:09;99221.07;;;11.22;90.74
55191;BME280;41070;50.360;18.742;2022-10-31T08:01:37;99223.60;;;11.29;90.84
55191;BME280;41070;50.360;18.742;2022-10-31T08:04:04;99220.14;;;11.38;90.94
55191;BME280;41070;50.360;18.742;2022-10-31T08:06:37;99218.38;;;11.47;90.98
55191;BME280;41070;50.360;18.742;2022-10-31T08:09:08;99220.46;;;11.54;90.69
55191;BME280;41070;50.360;18.742;2022-10-31T08:11:36;99219.77;;;11.59;90.53
55191;BME280;41070;50.360;18.742;2022-10-31T08:14:03;99223.32;;;11.64;90.44
55191;BME280;41070;50.360;18.742;2022-10-31T08:16:31;99226.13;;;11.71;90.30
55191;BME280;41070;50.360;18.742;2022-10-31T08:19:12;99225.70;;;11.79;90.50
55191;BME280;41070;50.360;18.742;2022-10-31T08:22:27;99228.25;;;11.90;90.31
55191;BME280;41070;50.360;18.742;2022-10-31T08:27:52;99231.15;;;12.03;89.80
55191;BME280;41070;50.360;18.742;2022-10-31T08:31:08;99230.52;;;12.11;89.73
55191;BME280;41070;50.360;18.742;2022-10-31T08:33:34;99227.73;;;12.20;89.71
55191;BME280;41070;50.360;18.742;2022-10-31T08:36:18;99232.36;;;12.28;89.61
55191;BME280;41070;50.360;18.742;2022-10-31T08:42:39;99232.38;;;12.47;89.07
55191;BME280;41070;50.360;18.742;2022-10-31T08:45:13;99228.70;;;12.55;89.22
55191;BME280;41070;50.360;18.742;2022-10-31T08:47:44;99230.78;;;12.63;89.16
55191;BME280;41070;50.360;18.742;2022-10-31T08:57:33;99226.23;;;12.98;88.56
55191;BME280;41070;50.360;18.742;2022-10-31T09:00:01;99226.81;;;13.06;88.42
55191;BME280;41070;50.360;18.742;2022-10-31T09:05:40;99232.46;;;13.22;88.25
55191;BME280;41070;50.360;18.742;2022-10-31T09:08:10;99233.42;;;13.27;87.94
55191;BME280;41070;50.360;18.742;2022-10-31T09:10:39;99232.64;;;13.34;87.94
55191;BME280;41070;50.360;18.742;2022-10-31T09:13:11;99235.66;;;13.41;87.97
55191;BME280;41070;50.360;18.742;2022-10-31T09:22:57;99233.13;;;13.71;87.44
55191;BME280;41070;50.360;18.742;2022-10-31T09:25:35;99234.45;;;13.79;87.38
55191;BME280;41070;50.360;18.742;2022-10-31T09:28:04;99236.01;;;13.86;87.18
55191;BME280;41070;50.360;18.742;2022-10-31T09:30:33;99236.42;;;13.94;87.10
55191;BME280;41070;50.360;18.742;2022-10-31T09:33:02;99238.30;;;14.03;87.12
55191;BME280;41070;50.360;18.742;2022-10-31T09:35:29;99236.92;;;14.09;86.82
55191;BME280;41070;50.360;18.742;2022-10-31T09:38:00;99237.23;;;14.16;86.57
55191;BME280;41070;50.360;18.742;2022-10-31T09:43:22;99239.75;;;14.29;86.34
55191;BME280;41070;50.360;18.742;2022-10-31T09:51:06;99240.50;;;14.50;85.72
55191;BME280;41070;50.360;18.742;2022-10-31T09:56:40;99236.25;;;14.66;85.47
55191;BME280;41070;50.360;18.742;2022-10-31T09:59:30;99236.86;;;14.76;85.23
55191;BME280;41070;50.360;18.742;2022-10-31T10:08:31;99234.27;;;15.07;84.32
55191;BME280;41070;50.360;18.742;2022-10-31T10:18:50;99224.08;;;15.39;83.83
55191;BME280;41070;50.360;18.742;2022-10-31T10:21:34;99225.97;;;15.51;83.32
55191;BME280;41070;50.360;18.742;2022-10-31T10:45:15;99218.48;;;16.18;81.29
55191;BME280;41070;50.360;18.742;2022-10-31T10:50:56;99217.70;;;16.33;81.02
55191;BME280;41070;50.360;18.742;2022-10-31T10:53:58;99216.04;;;16.38;80.69
55191;BME280;41070;50.360;18.742;2022-10-31T10:59:41;99207.33;;;16.43;80.09
55191;BME280;41070;50.360;18.742;2022-10-31T11:02:23;99214.06;;;16.51;80.14
55191;BME280;41070;50.360;18.742;2022-10-31T11:11:27;99208.24;;;16.61;78.28
55191;BME280;41070;50.360;18.742;2022-10-31T11:14:12;99205.96;;;16.64;78.06
55191;BME280;41070;50.360;18.742;2022-10-31T11:16:54;99202.00;;;16.68;77.83
55191;BME280;41070;50.360;18.742;2022-10-31T11:19:48;99200.20;;;16.73;77.93
55191;BME280;41070;50.360;18.742;2022-10-31T11:23:00;99195.19;;;16.80;77.76
55191;BME280;41070;50.360;18.742;2022-10-31T11:34:27;99196.00;;;17.03;76.74
55191;BME280;41070;50.360;18.742;2022-10-31T11:37:18;99191.12;;;17.08;76.15
55191;BME280;41070;50.360;18.742;2022-10-31T11:39:57;99192.64;;;17.13;75.58
55191;BME280;41070;50.360;18.742;2022-10-31T11:42:50;99197.85;;;17.18;75.44
55191;BME280;41070;50.360;18.742;2022-10-31T11:45:34;99189.62;;;17.21;75.23
55191;BME280;41070;50.360;18.742;2022-10-31T11:48:28;99188.83;;;17.28;75.04
55191;BME280;41070;50.360;18.742;2022-10-31T11:51:24;99188.08;;;17.29;74.90
55191;BME280;41070;50.360;18.742;2022-10-31T12:01:25;99178.53;;;17.43;73.35
55191;BME280;41070;50.360;18.742;2022-10-31T12:16:00;99175.60;;;17.44;71.63
55191;BME280;41070;50.360;18.742;2022-10-31T14:07:25;99144.04;;;17.29;72.24
55191;BME280;41070;50.360;18.742;2022-10-31T14:10:36;99147.23;;;17.24;72.43
55191;BME280;41070;50.360;18.742;2022-10-31T14:16:42;99147.48;;;17.18;71.90
55191;BME280;41070;50.360;18.742;2022-10-31T14:22:30;99141.39;;;17.10;72.53
55191;BME280;41070;50.360;18.742;2022-10-31T14:31:35;99135.03;;;16.99;72.70
55191;BME280;41070;50.360;18.742;2022-10-31T14:39:55;99126.24;;;16.84;73.02
55191;BME280;41070;50.360;18.742;2022-10-31T14:46:16;99122.67;;;16.71;73.44
55191;BME280;41070;50.360;18.742;2022-10-31T14:49:14;99122.53;;;16.65;73.79
55191;BME280;41070;50.360;18.742;2022-10-31T14:51:53;99121.30;;;16.56;73.83
55191;BME280;41070;50.360;18.742;2022-10-31T14:54:40;99119.89;;;16.48;73.99
55191;BME280;41070;50.360;18.742;2022-10-31T14:57:28;99114.88;;;16.35;74.55
55191;BME280;41070;50.360;18.742;2022-10-31T15:00:15;99114.96;;;16.23;75.14
55191;BME280;41070;50.360;18.742;2022-10-31T15:08:59;99107.74;;;15.74;76.51
55191;BME280;41070;50.360;18.742;2022-10-31T15:11:41;99106.86;;;15.56;77.05
55191;BME280;41070;50.360;18.742;2022-10-31T15:14:28;99102.95;;;15.42;77.43
55191;BME280;41070;50.360;18.742;2022-10-31T15:17:59;99101.58;;;15.23;77.92
55191;BME280;41070;50.360;18.742;2022-10-31T15:20:46;99107.73;;;15.13;78.45
55191;BME280;41070;50.360;18.742;2022-10-31T15:26:32;99104.37;;;14.92;78.88
55191;BME280;41070;50.360;18.742;2022-10-31T15:29:48;99101.38;;;14.79;79.31
55191;BME280;41070;50.360;18.742;2022-10-31T15:32:32;99100.32;;;14.68;79.76
55191;BME280;41070;50.360;18.742;2022-10-31T15:39:11;99099.48;;;14.49;80.11
55191;BME280;41070;50.360;18.742;2022-10-31T15:41:56;99096.41;;;14.37;80.06
55191;BME280;41070;50.360;18.742;2022-10-31T15:44:34;99100.72;;;14.29;80.22
55191;BME280;41070;50.360;18.742;2022-10-31T15:47:17;99093.88;;;14.17;80.35
55191;BME280;41070;50.360;18.742;2022-10-31T15:49:58;99098.02;;;14.10;80.57
55191;BME280;41070;50.360;18.742;2022-10-31T15:52:42;99097.38;;;14.01;80.74
55191;BME280;41070;50.360;18.742;2022-10-31T15:55:23;99105.83;;;13.97;80.91
55191;BME280;41070;50.360;18.742;2022-10-31T15:58:12;99111.06;;;13.90;80.87
55191;BME280;41070;50.360;18.742;2022-10-31T16:21:48;99125.13;;;13.25;82.40
55191;BME280;41070;50.360;18.742;2022-10-31T16:24:52;99124.27;;;13.20;82.79
55191;BME280;41070;50.360;18.742;2022-10-31T16:59:50;99125.70;;;12.38;85.34
55191;BME280;41070;50.360;18.742;2022-10-31T17:30:10;99126.39;;;11.86;85.20
55191;BME280;41070;50.360;18.742;2022-10-31T17:38:55;99125.27;;;11.81;85.70
55191;BME280;41070;50.360;18.742;2022-10-31T17:41:44;99119.39;;;11.77;85.76
55191;BME280;41070;50.360;18.742;2022-10-31T17:50:41;99128.05;;;11.75;85.67
55191;BME280;41070;50.360;18.742;2022-10-31T17:53:23;99128.41;;;11.71;85.57
55191;BME280;41070;50.360;18.742;2022-10-31T18:20:32;99127.95;;;11.16;87.28
55191;BME280;41070;50.360;18.742;2022-10-31T18:26:18;99129.56;;;11.04;87.93
55191;BME280;41070;50.360;18.742;2022-10-31T18:28:47;99128.08;;;11.01;87.94
55191;BME280;41070;50.360;18.742;2022-10-31T18:31:24;99121.98;;;10.97;87.97
55191;BME280;41070;50.360;18.742;2022-10-31T18:34:29;99120.02;;;10.94;88.02
55191;BME280;41070;50.360;18.742;2022-10-31T18:37:02;99111.64;;;10.90;88.02
55191;BME280;41070;50.360;18.742;2022-10-31T18:42:38;99113.30;;;10.91;88.37
55191;BME280;41070;50.360;18.742;2022-10-31T18:47:50;99109.42;;;10.97;88.02
55191;BME280;41070;50.360;18.742;2022-10-31T18:50:52;99105.02;;;10.93;87.85
55191;BME280;41070;50.360;18.742;2022-10-31T18:53:29;99103.69;;;10.88;87.72
55191;BME280;41070;50.360;18.742;2022-10-31T18:56:12;99100.69;;;10.82;87.57
55191;BME280;41070;50.360;18.742;2022-10-31T19:03:26;99097.02;;;10.78;87.39
55191;BME280;41070;50.360;18.742;2022-10-31T19:06:12;99097.48;;;10.73;87.58
55191;BME280;41070;50.360;18.742;2022-10-31T19:17:04;99100.58;;;10.65;87.86
55191;BME280;41070;50.360;18.742;2022-10-31T19:22:26;99099.55;;;10.54;87.03
55191;BME280;41070;50.360;18.742;2022-10-31T19:25:23;99095.24;;;10.46;87.21
55191;BME280;41070;50.360;18.742;2022-10-31T19:28:22;99092.35;;;10.46;87.47
55191;BME280;41070;50.360;18.742;2022-10-31T19:30:59;99091.70;;;10.48;87.38
55191;BME280;41070;50.360;18.742;2022-10-31T19:33:37;99088.96;;;10.48;87.45
55191;BME280;41070;50.360;18.742;2022-10-31T19:36:21;99088.36;;;10.48;87.34
55191;BME280;41070;50.360;18.742;2022-10-31T19:38:59;99086.46;;;10.46;87.17
55191;BME280;41070;50.360;18.742;2022-10-31T19:41:38;99085.65;;;10.45;87.16
55191;BME280;41070;50.360;18.742;2022-10-31T19:44:17;99084.86;;;10.44;87.33
55191;BME280;41070;50.360;18.742;2022-10-31T19:47:15;99085.06;;;10.45;87.42
55191;BME280;41070;50.360;18.742;2022-10-31T19:49:57;99080.95;;;10.44;87.29
55191;BME280;41070;50.360;18.742;2022-10-31T19:52:34;99082.55;;;10.40;86.97
55191;BME280;41070;50.360;18.742;2022-10-31T19:55:13;99083.79;;;10.33;87.27
55191;BME280;41070;50.360;18.742;2022-10-31T19:57:52;99079.56;;;10.33;87.38
55191;BME280;41070;50.360;18.742;2022-10-31T20:05:57;99076.89;;;10.33;87.30
55191;BME280;41070;50.360;18.742;2022-10-31T20:08:33;99077.68;;;10.33;87.30
55191;BME280;41070;50.360;18.742;2022-10-31T20:11:17;99077.61;;;10.33;87.25
55191;BME280;41070;50.360;18.742;2022-10-31T20:16:39;99073.23;;;10.33;87.35
55191;BME280;41070;50.360;18.742;2022-10-31T20:19:09;99072.92;;;10.33;87.15
55191;BME280;41070;50.360;18.742;2022-10-31T20:21:39;99068.25;;;10.31;87.02
55191;BME280;41070;50.360;18.742;2022-10-31T20:24:08;99067.96;;;10.28;86.93
55191;BME280;41070;50.360;18.742;2022-10-31T20:29:19;99065.80;;;10.23;86.95
55191;BME280;41070;50.360;18.742;2022-10-31T20:32:12;99067.22;;;10.23;86.91
55191;BME280;41070;50.360;18.742;2022-10-31T20:34:53;99067.29;;;10.23;86.81
55191;BME280;41070;50.360;18.742;2022-10-31T20:37:27;99064.59;;;10.21;86.88
55191;BME280;41070;50.360;18.742;2022-10-31T20:40:00;99063.41;;;10.20;86.81
55191;BME280;41070;50.360;18.742;2022-10-31T20:42:37;99061.52;;;10.18;86.90
55191;BME280;41070;50.360;18.742;2022-10-31T20:45:22;99068.63;;;10.16;86.81
55191;BME280;41070;50.360;18.742;2022-10-31T20:48:10;99069.92;;;10.16;87.06
55191;BME280;41070;50.360;18.742;2022-10-31T20:50:43;99067.73;;;10.15;86.76
55191;BME280;41070;50.360;18.742;2022-10-31T20:53:30;99060.65;;;10.11;86.60